createdAt,value
2017-12-24T00:01:15.020Z,-0.13
2017-12-24T00:03:44.119Z,-0.07
2017-12-24T00:06:14.034Z,-0.10
2017-12-24T00:08:43.847Z,-0.07
2017-12-24T00:11:13.714Z,-0.09
2017-12-24T00:13:42.778Z,-0.06
2017-12-24T00:16:12.570Z,0.00
2017-12-24T00:18:41.701Z,-0.02
2017-12-24T00:21:10.620Z,-0.02
2017-12-24T00:23:40.663Z,-0.02
2017-12-24T00:26:10.750Z,-0.10
2017-12-24T00:28:39.683Z,-0.14
2017-12-24T00:31:08.846Z,-0.13
2017-12-24T00:33:38.020Z,-0.13
2017-12-24T00:36:07.110Z,-0.20
2017-12-24T00:38:36.171Z,-0.16
2017-12-24T00:41:06.358Z,-0.11
2017-12-24T00:43:35.445Z,-0.16
2017-12-24T00:46:05.680Z,-0.11
2017-12-24T00:48:35.955Z,-0.14
2017-12-24T00:51:06.013Z,-0.22
2017-12-24T00:53:35.514Z,-0.28
2017-12-24T00:56:04.711Z,-0.22
2017-12-24T00:58:34.464Z,-0.22
2017-12-24T01:01:04.343Z,-0.22
2017-12-24T01:03:34.558Z,-0.22
2017-12-24T01:06:04.634Z,-0.25
2017-12-24T01:08:36.495Z,-0.18
2017-12-24T01:17:53.306Z,-0.42
2017-12-24T01:20:23.553Z,-0.44
2017-12-24T01:22:55.011Z,-0.30
2017-12-24T01:25:24.319Z,-0.25
2017-12-24T01:27:53.305Z,-0.19
2017-12-24T01:32:57.063Z,-0.17
2017-12-24T01:35:26.101Z,-0.14
2017-12-24T01:37:57.079Z,-0.16
2017-12-24T01:40:26.348Z,-0.14
2017-12-24T01:42:55.359Z,-0.16
2017-12-24T01:45:26.877Z,-0.14
2017-12-24T01:47:56.222Z,-0.16
2017-12-24T01:50:25.266Z,-0.17
2017-12-24T01:52:55.778Z,-0.14
2017-12-24T01:55:27.457Z,-0.10
2017-12-24T01:57:57.387Z,-0.07
2017-12-24T02:00:27.285Z,-0.10
2017-12-24T02:02:58.270Z,-0.11
2017-12-24T02:05:27.324Z,-0.10
2017-12-24T02:07:56.307Z,-0.13
2017-12-24T02:10:26.159Z,-0.10
2017-12-24T02:12:55.161Z,-0.14
2017-12-24T02:15:24.105Z,-0.21
2017-12-24T02:17:53.397Z,-0.22
2017-12-24T02:20:22.280Z,-0.23
2017-12-24T02:22:51.437Z,-0.25
2017-12-24T02:25:22.072Z,-0.29
2017-12-24T02:27:51.023Z,-0.25
2017-12-24T02:30:19.917Z,-0.33
2017-12-24T02:32:50.078Z,-0.37
2017-12-24T02:35:19.028Z,-0.41
2017-12-24T02:37:48.065Z,-0.35
2017-12-24T02:40:17.161Z,-0.27
2017-12-24T02:42:46.113Z,-0.16
2017-12-24T02:45:16.845Z,-0.09
2017-12-24T02:47:47.504Z,0.02
2017-12-24T02:50:16.472Z,0.10
2017-12-24T02:52:46.421Z,0.17
2017-12-24T02:55:15.470Z,0.17
2017-12-24T02:57:44.517Z,0.17
2017-12-24T03:00:14.024Z,0.17
2017-12-24T03:02:43.055Z,0.18
2017-12-24T03:05:12.115Z,0.17
2017-12-24T03:07:41.990Z,0.19
2017-12-24T03:10:11.735Z,0.14
2017-12-24T03:12:40.689Z,0.09
2017-12-24T03:15:10.575Z,0.11
2017-12-24T03:17:39.603Z,0.15
2017-12-24T03:20:09.520Z,0.13
2017-12-24T03:22:39.569Z,0.08
2017-12-24T03:27:43.259Z,0.07
2017-12-24T03:30:14.859Z,0.02
2017-12-24T03:32:44.750Z,0.01
2017-12-24T03:35:13.862Z,0.03
2017-12-24T03:37:42.790Z,-0.18
2017-12-24T03:40:14.552Z,-0.12
2017-12-24T03:42:43.683Z,-0.07
2017-12-24T03:45:13.482Z,-0.11
2017-12-24T03:47:43.447Z,-0.10
2017-12-24T03:50:14.183Z,-0.06
2017-12-24T03:52:43.171Z,-0.06
2017-12-24T03:57:52.891Z,-0.04
2017-12-24T04:00:22.195Z,-0.01
2017-12-24T04:02:52.198Z,0.06
2017-12-24T04:05:21.354Z,0.10
2017-12-24T04:07:53.407Z,0.04
2017-12-24T04:10:26.770Z,0.12
2017-12-24T04:12:55.807Z,0.18
2017-12-24T04:15:24.810Z,0.14
2017-12-24T04:17:53.886Z,0.17
2017-12-24T04:20:23.769Z,0.18
2017-12-24T04:22:53.408Z,0.24
2017-12-24T04:25:33.151Z,0.27
2017-12-24T04:28:02.489Z,0.22
2017-12-24T04:30:31.609Z,0.27
2017-12-24T04:33:01.878Z,0.21
2017-12-24T04:35:30.887Z,0.29
2017-12-24T04:38:00.415Z,0.29
2017-12-24T04:40:31.214Z,0.31
2017-12-24T04:43:01.213Z,0.32
2017-12-24T04:45:30.349Z,0.37
2017-12-24T04:47:59.733Z,0.44
2017-12-24T04:50:29.585Z,0.43
2017-12-24T04:52:58.676Z,0.39
2017-12-24T04:55:30.471Z,0.50
2017-12-24T04:57:59.493Z,0.53
2017-12-24T05:00:29.412Z,0.57
2017-12-24T05:03:02.611Z,0.58
2017-12-24T05:05:32.354Z,0.60
2017-12-24T05:08:01.345Z,0.62
2017-12-24T05:10:34.289Z,0.63
2017-12-24T05:13:03.428Z,0.62
2017-12-24T05:15:32.483Z,0.65
2017-12-24T05:20:37.626Z,0.66
2017-12-24T05:23:06.734Z,0.78
2017-12-24T05:25:36.685Z,0.85
2017-12-24T05:28:07.490Z,0.93
2017-12-24T05:33:05.687Z,0.90
2017-12-24T05:35:35.805Z,1.01
2017-12-24T05:38:06.473Z,1.05
2017-12-24T05:40:35.732Z,1.06
2017-12-24T05:43:05.504Z,1.12
2017-12-24T05:45:35.252Z,1.18
2017-12-24T05:48:04.314Z,1.17
2017-12-24T05:50:34.298Z,1.28
2017-12-24T05:53:05.063Z,1.39
2017-12-24T05:55:33.994Z,1.32
2017-12-24T05:58:03.997Z,1.31
2017-12-24T06:00:33.524Z,1.41
2017-12-24T06:03:02.774Z,1.47
2017-12-24T06:05:32.596Z,1.55
2017-12-24T06:08:01.741Z,1.66
2017-12-24T06:10:33.350Z,1.63
2017-12-24T06:13:02.881Z,1.73
2017-12-24T06:15:32.757Z,1.85
2017-12-24T06:18:01.888Z,1.94
2017-12-24T06:20:30.858Z,2.10
2017-12-24T06:23:00.006Z,2.16
2017-12-24T06:25:31.423Z,2.16
2017-12-24T06:28:00.683Z,2.29
2017-12-24T06:30:29.828Z,2.40
2017-12-24T06:33:06.510Z,2.45
2017-12-24T06:35:35.608Z,2.55
2017-12-24T06:38:04.703Z,2.72
2017-12-24T06:40:34.007Z,2.86
2017-12-24T06:43:03.095Z,2.95
2017-12-24T06:45:32.294Z,3.00
2017-12-24T06:48:01.594Z,3.08
2017-12-24T06:50:30.774Z,3.10
2017-12-24T06:53:00.205Z,3.11
2017-12-24T06:55:30.112Z,3.17
2017-12-24T06:58:01.126Z,3.26
2017-12-24T07:00:31.434Z,3.27
2017-12-24T07:03:01.300Z,3.33
2017-12-24T07:05:30.503Z,3.35
2017-12-24T07:08:03.891Z,3.39
2017-12-24T07:10:32.988Z,3.26
2017-12-24T07:13:02.831Z,3.41
2017-12-24T07:15:33.112Z,3.51
2017-12-24T07:18:03.297Z,3.66
2017-12-24T07:20:35.129Z,3.77
2017-12-24T07:23:05.300Z,3.82
2017-12-24T07:25:35.984Z,4.01
2017-12-24T07:28:08.399Z,4.13
2017-12-24T07:30:41.095Z,4.26
2017-12-24T07:33:11.419Z,4.45
2017-12-24T07:35:40.590Z,4.50
2017-12-24T07:38:10.602Z,4.45
2017-12-24T07:40:40.607Z,4.49
2017-12-24T07:43:11.541Z,4.50
2017-12-24T07:45:43.016Z,4.66
2017-12-24T07:48:12.050Z,4.92
2017-12-24T07:53:15.161Z,5.32
2017-12-24T07:55:45.109Z,5.46
2017-12-24T07:58:14.724Z,5.57
2017-12-24T08:00:45.812Z,5.80
2017-12-24T08:03:14.830Z,5.76
2017-12-24T08:05:44.749Z,5.88
2017-12-24T08:08:13.890Z,5.75
2017-12-24T08:10:44.122Z,5.29
2017-12-24T08:13:14.563Z,5.26
2017-12-24T08:15:43.578Z,5.14
2017-12-24T08:18:12.673Z,4.87
2017-12-24T08:20:41.656Z,4.86
2017-12-24T08:23:10.763Z,5.11
2017-12-24T08:25:46.410Z,5.37
2017-12-24T08:28:16.545Z,5.47
2017-12-24T08:30:45.521Z,5.76
2017-12-24T08:33:18.699Z,5.69
2017-12-24T08:35:47.681Z,5.54
2017-12-24T08:38:17.590Z,5.44
2017-12-24T08:40:48.197Z,5.37
2017-12-24T08:43:17.328Z,5.24
2017-12-24T08:45:47.186Z,5.24
2017-12-24T08:48:17.101Z,5.25
2017-12-24T08:50:46.150Z,5.17
2017-12-24T08:53:15.150Z,5.22
2017-12-24T08:55:44.285Z,5.29
2017-12-24T08:58:16.407Z,5.40
2017-12-24T09:00:47.354Z,5.41
2017-12-24T09:03:17.243Z,5.49
2017-12-24T09:08:25.489Z,5.44
2017-12-24T09:10:55.354Z,5.62
2017-12-24T09:13:24.436Z,5.68
2017-12-24T09:15:53.369Z,5.76
2017-12-24T09:21:01.536Z,5.99
2017-12-24T09:23:31.517Z,6.20
2017-12-24T09:26:00.610Z,6.28
2017-12-24T09:28:30.617Z,6.45
2017-12-24T09:30:59.582Z,6.50
2017-12-24T09:33:28.634Z,6.46
2017-12-24T09:36:01.422Z,6.45
2017-12-24T09:38:34.128Z,6.59
2017-12-24T09:41:03.103Z,6.64
2017-12-24T09:43:32.229Z,6.70
2017-12-24T09:46:02.200Z,6.95
2017-12-24T09:48:32.123Z,7.09
2017-12-24T09:51:01.350Z,7.08
2017-12-24T09:53:30.518Z,7.01
2017-12-24T09:55:59.712Z,7.05
2017-12-24T09:58:31.106Z,7.18
2017-12-24T10:01:00.160Z,7.31
2017-12-24T10:03:29.966Z,7.33
2017-12-24T10:05:59.061Z,7.31
2017-12-24T10:08:28.930Z,7.23
2017-12-24T10:10:59.013Z,7.16
2017-12-24T10:13:27.979Z,7.10
2017-12-24T10:15:58.113Z,7.05
2017-12-24T10:18:29.970Z,6.95
2017-12-24T10:20:59.575Z,7.16
2017-12-24T10:23:28.783Z,7.36
2017-12-24T10:25:57.963Z,7.33
2017-12-24T10:28:28.139Z,7.47
2017-12-24T10:30:58.017Z,7.43
2017-12-24T10:33:27.828Z,7.40
2017-12-24T10:35:56.797Z,7.67
2017-12-24T10:38:25.765Z,7.75
2017-12-24T10:40:54.810Z,7.98
2017-12-24T10:43:24.017Z,8.06
2017-12-24T10:45:53.209Z,8.13
2017-12-24T10:48:22.516Z,8.23
2017-12-24T10:50:54.208Z,8.16
2017-12-24T10:53:23.291Z,7.99
2017-12-24T10:55:54.491Z,8.06
2017-12-24T10:58:23.438Z,7.99
2017-12-24T11:00:54.568Z,8.04
2017-12-24T11:05:58.783Z,8.09
2017-12-24T11:08:27.978Z,8.07
2017-12-24T11:10:57.005Z,8.23
2017-12-24T11:13:27.961Z,8.17
2017-12-24T11:15:57.065Z,8.32
2017-12-24T11:18:27.039Z,8.43
2017-12-24T11:20:56.082Z,8.44
2017-12-24T11:23:27.397Z,8.45
2017-12-24T11:25:57.891Z,8.50
2017-12-24T11:28:26.885Z,8.39
2017-12-24T11:33:37.269Z,8.61
2017-12-24T11:36:12.739Z,8.60
2017-12-24T11:38:43.562Z,8.71
2017-12-24T11:41:15.582Z,8.95
2017-12-24T11:43:45.927Z,8.77
2017-12-24T11:49:03.915Z,9.10
2017-12-24T11:51:36.691Z,9.09
2017-12-24T11:54:07.084Z,9.10
2017-12-24T11:56:36.255Z,9.09
2017-12-24T11:59:06.301Z,9.07
2017-12-24T12:01:38.245Z,9.13
2017-12-24T12:04:07.376Z,9.25
2017-12-24T12:06:37.122Z,9.34
2017-12-24T12:09:07.144Z,9.42
2017-12-24T12:11:36.238Z,9.55
2017-12-24T12:14:05.255Z,9.50
2017-12-24T12:16:37.740Z,9.22
2017-12-24T12:19:07.336Z,9.12
2017-12-24T12:21:36.317Z,9.18
2017-12-24T12:24:05.571Z,9.14
2017-12-24T12:26:36.510Z,9.23
2017-12-24T12:29:06.882Z,9.39
2017-12-24T12:31:36.188Z,9.16
2017-12-24T12:34:05.176Z,9.34
2017-12-24T12:36:34.271Z,9.48
2017-12-24T12:39:04.370Z,9.57
2017-12-24T12:41:33.546Z,9.49
2017-12-24T12:46:38.393Z,9.44
2017-12-24T12:49:08.212Z,9.42
2017-12-24T12:54:14.622Z,9.24
2017-12-24T12:56:45.694Z,9.19
2017-12-24T12:59:15.648Z,9.17
2017-12-24T13:01:44.897Z,9.21
2017-12-24T13:04:14.006Z,9.17
2017-12-24T13:06:44.932Z,9.17
2017-12-24T13:09:14.823Z,9.21
2017-12-24T13:11:45.018Z,9.20
2017-12-24T13:14:14.073Z,9.19
2017-12-24T13:16:44.864Z,9.19
2017-12-24T13:19:14.483Z,9.14
2017-12-24T13:21:43.575Z,9.18
2017-12-24T13:24:13.719Z,9.18
2017-12-24T13:26:42.635Z,9.22
2017-12-24T13:29:11.595Z,9.14
2017-12-24T13:31:42.743Z,9.16
2017-12-24T13:34:13.130Z,9.15
2017-12-24T13:36:43.435Z,9.09
2017-12-24T13:39:13.508Z,9.04
2017-12-24T13:41:42.855Z,9.09
2017-12-24T13:44:13.818Z,9.09
2017-12-24T13:46:43.055Z,9.15
2017-12-24T13:49:12.275Z,9.16
2017-12-24T13:51:42.129Z,9.19
2017-12-24T13:54:12.174Z,9.02
2017-12-24T13:56:44.927Z,9.03
2017-12-24T13:59:14.175Z,8.93
2017-12-24T14:01:43.187Z,8.90
2017-12-24T14:04:12.299Z,8.86
2017-12-24T14:06:41.416Z,8.79
2017-12-24T14:09:11.070Z,8.72
2017-12-24T14:11:40.937Z,8.65
2017-12-24T14:14:10.027Z,8.53
2017-12-24T14:16:39.236Z,8.29
2017-12-24T14:19:09.857Z,8.25
2017-12-24T14:21:38.868Z,8.19
2017-12-24T14:24:09.271Z,8.09
2017-12-24T14:26:39.504Z,8.03
2017-12-24T14:29:10.459Z,7.94
2017-12-24T14:31:42.816Z,7.94
2017-12-24T14:34:11.973Z,7.84
2017-12-24T14:36:41.001Z,7.75
2017-12-24T14:39:10.044Z,7.69
2017-12-24T14:41:39.241Z,7.70
2017-12-24T14:44:08.807Z,7.58
2017-12-24T14:46:38.149Z,7.47
2017-12-24T14:49:07.362Z,7.40
2017-12-24T14:51:36.503Z,7.32
2017-12-24T14:54:06.417Z,7.32
2017-12-24T14:56:36.273Z,7.27
2017-12-24T14:59:05.229Z,7.18
2017-12-24T15:01:35.758Z,7.21
2017-12-24T15:04:06.640Z,7.04
2017-12-24T15:06:35.745Z,7.00
2017-12-24T15:09:06.009Z,7.11
2017-12-24T15:11:35.111Z,7.14
2017-12-24T15:14:05.979Z,7.23
2017-12-24T15:16:36.084Z,7.29
2017-12-24T15:19:05.708Z,7.35
2017-12-24T15:21:35.945Z,7.36
2017-12-24T15:24:06.824Z,7.33
2017-12-24T15:26:36.750Z,7.36
2017-12-24T15:29:09.471Z,7.40
2017-12-24T15:31:38.697Z,7.38
2017-12-24T15:34:07.724Z,7.39
2017-12-24T15:36:37.701Z,7.35
2017-12-24T15:39:08.209Z,7.27
2017-12-24T15:41:37.165Z,7.21
2017-12-24T15:44:07.390Z,7.20
2017-12-24T15:46:36.380Z,7.15
2017-12-24T15:49:06.444Z,7.13
2017-12-24T15:54:10.070Z,7.24
2017-12-24T15:56:39.115Z,7.21
2017-12-24T15:59:09.283Z,7.19
2017-12-24T16:01:38.194Z,7.25
2017-12-24T16:04:07.362Z,7.23
2017-12-24T16:09:11.703Z,7.23
2017-12-24T16:11:40.862Z,7.23
2017-12-24T16:14:12.130Z,7.20
2017-12-24T16:16:43.946Z,7.26
2017-12-24T16:19:14.394Z,7.30
2017-12-24T16:21:43.497Z,7.30
2017-12-24T16:24:12.514Z,7.31
2017-12-24T16:26:41.627Z,7.26
2017-12-24T16:29:10.619Z,7.23
2017-12-24T16:31:39.568Z,7.23
2017-12-24T16:34:08.816Z,7.26
2017-12-24T16:36:37.998Z,7.32
2017-12-24T16:39:07.162Z,7.34
2017-12-24T16:41:36.257Z,7.33
2017-12-24T16:44:05.566Z,7.35
2017-12-24T16:46:35.306Z,7.40
2017-12-24T16:51:40.902Z,7.38
2017-12-24T16:54:12.705Z,7.33
2017-12-24T16:56:41.824Z,7.30
2017-12-24T16:59:10.979Z,7.27
2017-12-24T17:01:40.914Z,7.22
2017-12-24T17:04:10.049Z,7.09
2017-12-24T17:06:39.241Z,7.07
2017-12-24T17:09:09.532Z,7.17
2017-12-24T17:11:40.544Z,7.18
2017-12-24T17:14:10.775Z,7.23
2017-12-24T17:16:40.432Z,7.15
2017-12-24T17:19:14.107Z,7.08
2017-12-24T17:21:43.911Z,7.15
2017-12-24T17:24:13.426Z,7.15
2017-12-24T17:26:48.530Z,7.15
2017-12-24T17:29:17.668Z,7.20
2017-12-24T17:31:46.707Z,7.26
2017-12-24T17:34:18.497Z,7.28
2017-12-24T17:36:48.780Z,7.30
2017-12-24T17:39:18.801Z,7.33
2017-12-24T17:41:48.886Z,7.27
2017-12-24T17:44:18.080Z,7.20
2017-12-24T17:46:47.089Z,7.19
2017-12-24T17:49:19.102Z,7.21
2017-12-24T17:51:49.822Z,7.22
2017-12-24T17:54:18.945Z,7.23
2017-12-24T17:56:50.656Z,7.22
2017-12-24T17:59:19.827Z,7.22
2017-12-24T18:01:49.024Z,7.21
2017-12-24T18:04:18.314Z,7.23
2017-12-24T18:06:49.169Z,7.21
2017-12-24T18:09:18.276Z,7.31
2017-12-24T18:11:47.559Z,7.30
2017-12-24T18:14:24.537Z,7.29
2017-12-24T18:16:57.117Z,7.29
2017-12-24T18:19:26.476Z,7.31
2017-12-24T18:21:56.228Z,7.35
2017-12-24T18:24:27.888Z,7.40
2017-12-24T18:26:56.997Z,7.43
2017-12-24T18:29:25.969Z,7.40
2017-12-24T18:34:31.218Z,7.42
2017-12-24T18:37:00.372Z,7.39
2017-12-24T18:39:29.675Z,7.44
2017-12-24T18:41:59.897Z,7.42
2017-12-24T18:44:28.950Z,7.39
2017-12-24T18:46:59.097Z,7.39
2017-12-24T18:49:28.062Z,7.40
2017-12-24T18:51:58.595Z,7.37
2017-12-24T18:54:29.738Z,7.37
2017-12-24T18:57:00.087Z,7.37
2017-12-24T18:59:29.270Z,7.37
2017-12-24T19:01:58.556Z,7.33
2017-12-24T19:04:27.966Z,7.39
2017-12-24T19:06:56.971Z,7.38
2017-12-24T19:09:27.897Z,7.30
2017-12-24T19:11:57.721Z,7.28
2017-12-24T19:14:27.734Z,7.31
2017-12-24T19:16:57.892Z,7.32
2017-12-24T19:19:27.150Z,7.22
2017-12-24T19:21:56.936Z,7.21
2017-12-24T19:24:27.778Z,7.24
2017-12-24T19:26:56.828Z,7.18
2017-12-24T19:29:26.724Z,7.21
2017-12-24T19:31:58.716Z,7.17
2017-12-24T19:34:27.977Z,7.17
2017-12-24T19:36:58.159Z,7.07
2017-12-24T19:39:27.189Z,7.07
2017-12-24T19:41:56.074Z,7.06
2017-12-24T19:44:25.214Z,6.99
2017-12-24T19:46:54.244Z,6.98
2017-12-24T19:49:23.282Z,6.96
2017-12-24T19:51:53.058Z,7.05
2017-12-24T19:54:23.813Z,7.00
2017-12-24T19:56:52.693Z,6.98
2017-12-24T19:59:23.538Z,6.95
2017-12-24T20:01:53.524Z,6.93
2017-12-24T20:04:22.699Z,6.95
2017-12-24T20:06:51.648Z,6.97
2017-12-24T20:09:25.426Z,6.95
2017-12-24T20:11:54.629Z,6.98
2017-12-24T20:14:23.851Z,6.95
2017-12-24T20:16:54.481Z,6.93
2017-12-24T20:19:23.850Z,6.94
2017-12-24T20:21:53.754Z,6.95
2017-12-24T20:24:23.021Z,6.87
2017-12-24T20:26:52.406Z,6.86
2017-12-24T20:29:22.334Z,6.89
2017-12-24T20:31:52.185Z,6.88
2017-12-24T20:34:21.174Z,6.91
2017-12-24T20:36:50.372Z,6.94
2017-12-24T20:39:20.551Z,6.90
2017-12-24T20:41:49.883Z,6.83
2017-12-24T20:44:18.952Z,6.83
2017-12-24T20:46:47.994Z,6.84
2017-12-24T20:49:20.617Z,6.80
2017-12-24T20:51:51.464Z,6.73
2017-12-24T20:54:20.632Z,6.81
2017-12-24T20:56:50.396Z,6.77
2017-12-24T20:59:19.318Z,6.81
2017-12-24T21:01:48.277Z,6.76
2017-12-24T21:04:17.302Z,6.74
2017-12-24T21:06:48.154Z,6.75
2017-12-24T21:09:17.236Z,6.75
2017-12-24T21:11:46.311Z,6.79
2017-12-24T21:14:16.442Z,6.81
2017-12-24T21:16:45.641Z,6.81
2017-12-24T21:19:14.845Z,6.81
2017-12-24T21:21:45.921Z,6.88
2017-12-24T21:24:15.656Z,6.85
2017-12-24T21:26:45.408Z,6.90
2017-12-24T21:29:15.356Z,6.93
2017-12-24T21:31:46.850Z,6.97
2017-12-24T21:34:16.205Z,6.96
2017-12-24T21:39:21.751Z,6.98
2017-12-24T21:41:52.028Z,6.95
2017-12-24T21:44:21.753Z,6.97
2017-12-24T21:46:50.990Z,6.92
2017-12-24T21:49:20.200Z,6.92
2017-12-24T21:51:49.598Z,6.91
2017-12-24T21:54:18.939Z,6.92
2017-12-24T21:56:48.051Z,6.94
2017-12-24T21:59:20.005Z,7.05
2017-12-24T22:01:50.622Z,7.02
2017-12-24T22:06:54.961Z,7.09
2017-12-24T22:09:23.894Z,7.14
2017-12-24T22:11:55.878Z,7.10
2017-12-24T22:14:25.194Z,7.14
2017-12-24T22:17:01.052Z,7.19
2017-12-24T22:19:30.598Z,7.15
2017-12-24T22:21:59.837Z,7.20
2017-12-24T22:27:03.746Z,7.26
2017-12-24T22:29:33.063Z,7.28
2017-12-24T22:32:03.666Z,7.31
2017-12-24T22:34:32.878Z,7.32
2017-12-24T22:37:01.948Z,7.31
2017-12-24T22:39:33.059Z,7.30
2017-12-24T22:42:02.149Z,7.27
2017-12-24T22:44:31.983Z,7.27
2017-12-24T22:47:01.010Z,7.22
2017-12-24T22:49:30.218Z,7.23
2017-12-24T22:51:59.803Z,7.21
2017-12-24T22:54:31.504Z,7.14
2017-12-24T22:57:00.481Z,7.13
2017-12-24T22:59:29.685Z,7.13
2017-12-24T23:01:58.998Z,7.09
2017-12-24T23:04:28.028Z,7.14
2017-12-24T23:06:57.290Z,7.14
2017-12-24T23:09:27.495Z,7.18
2017-12-24T23:11:57.056Z,7.18
2017-12-24T23:14:26.873Z,7.18
2017-12-24T23:16:57.028Z,7.20
2017-12-24T23:19:26.163Z,7.22
2017-12-24T23:21:55.223Z,7.23
2017-12-24T23:26:55.975Z,7.29
2017-12-24T23:29:25.034Z,7.35
2017-12-24T23:31:54.900Z,7.47
2017-12-24T23:34:23.856Z,7.46
2017-12-24T23:36:53.955Z,7.52
2017-12-24T23:39:24.956Z,7.59
2017-12-24T23:41:53.975Z,7.67
2017-12-24T23:44:24.726Z,7.73
2017-12-24T23:46:53.902Z,7.75
2017-12-24T23:49:27.817Z,7.73
2017-12-24T23:52:02.253Z,7.74
2017-12-24T23:54:31.599Z,7.71
2017-12-24T23:57:00.690Z,7.73
2017-12-24T23:59:30.006Z,7.72
